Latest Weather Observations for Truscott

IDD60801

Issued at 2:31 pm CST Tuesday 31 March 2015 (issued every 30 minutes, with the page automatically refreshed every 10 minutes)

About weather observations | Map of weather stations | Latest weather observations for NT | Other Formats
Station Details ID: 001020 Name: TRUSCOTT Lat: -14.09 Lon: 126.39 Height: 51.0 m
Data from the previous 72 hours. | See also: Recent months at Truscott
Date/Time
CST
Temp
°C
App
Temp
°C
Dew
Point
Rel
Hum
%
Delta-T
°C
Wind Press
QNH
hPa
Press
MSL
hPa
Rain
since 9 am
mm
Dir
 
Spd
km/h
Gust
km/h
Spd
kts
Gust
kts
31/02:30pm 33.8 36.6 21.6 49 8.3 ESE 9 17 5 9 1010.5 - 0.0
31/02:00pm 32.9 35.9 22.0 52 7.4 NNW 9 15 5 8 1011.0 - 0.0
31/01:30pm 33.2 35.4 22.6 53 7.3 N 15 41 8 22 1011.3 1010.7 0.0
31/01:00pm 33.1 34.8 20.9 48 8.2 ENE 13 20 7 11 1011.9 - 0.0
31/12:30pm 33.1 35.4 20.6 47 8.4 E 9 19 5 10 1012.4 - 0.0
31/12:00pm 32.5 34.5 20.7 49 7.9 ESE 11 19 6 10 1013.0 - 0.0
31/11:30am 31.9 36.1 23.4 60 5.9 ESE 7 13 4 7 1013.5 - 0.0
31/11:00am 31.5 35.5 23.1 61 5.8 S 7 11 4 6 1013.6 - 0.0
31/10:30am 30.5 34.6 23.2 65 5.0 S 7 13 4 7 1013.8 1013.2 0.0
31/10:00am 30.2 34.8 24.8 73 3.8 SW 9 13 5 7 1013.9 - 0.0
31/09:30am 29.7 33.6 23.6 69 4.2 SSW 9 13 5 7 1013.8 - 0.0
31/09:00am 29.1 33.5 24.4 76 3.3 SSW 9 11 5 6 1013.8 - 0.0
31/08:30am 28.1 32.8 24.3 80 2.6 SSW 7 9 4 5 1013.5 - 0.0
31/08:00am 26.4 32.9 25.0 92 1.0 CALM 0 0 0 0 1013.2 - 0.0
31/07:30am 25.3 31.8 25.0 98 0.2 CALM 0 0 0 0 1013.0 1012.4 0.0
31/07:00am 25.0 30.1 24.7 98 0.2 ESE 6 7 3 4 1012.6 - 0.0
31/06:30am 25.1 31.3 24.6 97 0.3 CALM 0 0 0 0 1012.2 - 0.0
31/06:00am 25.1 31.3 24.6 97 0.3 CALM 0 0 0 0 1012.0 - 0.0
31/05:30am 25.2 31.3 24.5 96 0.5 CALM 0 0 0 0 1011.7 - 0.0
31/05:00am 25.5 31.0 24.6 95 0.6 SSW 4 6 2 3 1011.5 - 0.0
31/04:30am 25.7 31.1 24.5 93 0.8 SSW 4 7 2 4 1011.2 1010.6 0.0
31/04:00am 26.3 31.1 24.5 90 1.2 SSW 7 9 4 5 1011.1 - 0.0
31/03:30am 25.8 31.9 24.4 92 1.0 CALM 0 2 0 1 1011.2 - 0.0
31/03:00am 26.6 31.4 24.4 88 1.5 S 7 9 4 5 1011.4 - 0.0
31/02:30am 26.7 30.8 24.5 88 1.5 SSW 11 13 6 7 1011.6 - 0.0
31/02:00am 26.9 32.0 24.9 89 1.4 SSW 7 9 4 5 1011.8 - 0.0
31/01:30am 26.2 31.8 25.5 96 0.5 S 6 7 3 4 1012.1 1011.5 0.0
31/01:00am 26.0 32.6 25.3 96 0.5 CALM 0 0 0 0 1012.1 - 0.0
31/12:30am 26.2 32.8 25.3 95 0.6 CALM 0 0 0 0 1012.5 - 0.0
31/12:00am 26.2 32.7 25.0 93 0.8 CALM 0 0 0 0 1012.8 - 0.0
 
Date/Time
CST
Temp
°C
App
Temp
°C
Dew
Point
Rel
Hum
%
Delta-T
°C
Wind Press
QNH
hPa
Press
MSL
hPa
Rain
since 9 am
mm
Dir
 
Spd
km/h
Gust
km/h
Spd
kts
Gust
kts
30/11:30pm 26.4 32.9 25.0 92 1.0 CALM 0 0 0 0 1013.0 - 0.0
30/11:00pm 26.7 33.2 25.1 91 1.1 CALM 0 0 0 0 1013.3 - 0.0
30/10:30pm 26.8 33.3 25.0 90 1.3 CALM 0 0 0 0 1013.4 1012.8 0.0
30/10:00pm 26.9 33.3 24.9 89 1.4 CALM 0 0 0 0 1013.3 - 0.0
30/09:30pm 27.4 33.5 24.5 84 2.0 CALM 0 0 0 0 1013.2 - 0.0
30/09:00pm 27.5 33.4 24.1 82 2.4 CALM 0 2 0 1 1012.8 - 0.0
30/08:30pm 27.8 32.9 24.6 83 2.2 NNE 6 7 3 4 1012.2 - 0.0
30/08:00pm 28.1 33.5 23.9 78 2.9 N 2 6 1 3 1011.7 - 0.0
30/07:30pm 28.6 33.3 23.9 75 3.3 N 6 7 3 4 1011.4 1010.8 0.0
30/07:00pm 29.5 33.4 23.0 68 4.5 N 7 9 4 5 1011.2 - 0.0
30/06:30pm 30.1 33.5 23.3 67 4.7 N 11 15 6 8 1011.0 - 0.0
30/06:00pm 30.5 33.6 22.9 64 5.2 N 11 17 6 9 1010.7 - 0.0
30/05:30pm 31.1 34.7 23.7 64 5.1 NNW 11 19 6 10 1010.7 - 0.0
30/05:00pm 31.3 34.2 23.1 61 5.6 N 13 17 7 9 1010.6 - 0.0
30/04:30pm 31.4 33.9 22.4 59 6.2 N 13 19 7 10 1010.6 1010.0 0.0
30/04:00pm 31.9 34.3 22.3 56 6.6 N 13 20 7 11 1010.6 - 0.0
30/03:30pm 32.2 35.5 23.2 59 6.2 N 11 19 6 10 1010.6 - 0.0
30/03:00pm 32.1 35.6 23.6 60 5.9 NNW 11 15 6 8 1010.9 - 0.0
30/02:30pm 32.3 35.4 23.5 59 6.1 N 13 22 7 12 1011.3 - 0.0
30/02:00pm 32.2 34.6 22.3 56 6.8 NE 13 26 7 14 1011.6 - 0.0
30/01:30pm 32.8 34.8 21.6 51 7.6 ENE 13 20 7 11 1011.9 1011.3 0.0
30/01:00pm 32.6 34.4 21.1 50 7.7 NE 13 19 7 10 1012.3 - 0.0
30/12:30pm 32.5 33.9 21.0 50 7.7 ENE 15 20 8 11 1012.6 - 0.0
30/12:00pm 32.4 35.5 22.2 55 7.0 ENE 9 15 5 8 1012.8 - 0.0
30/11:30am 32.1 35.6 22.2 56 6.8 N 7 13 4 7 1013.2 - 0.0
30/11:00am 31.4 35.9 24.0 65 5.2 SSE 7 9 4 5 1013.4 - 0.0
30/10:30am 30.5 34.7 23.2 65 5.0 S 6 11 3 6 1013.5 1012.9 0.0
30/10:00am 30.1 34.5 24.5 72 3.9 SW 9 11 5 6 1013.5 - 0.0
30/09:30am 29.2 33.9 25.0 78 3.0 SSW 9 15 5 8 1013.4 - 0.0
30/09:00am 28.3 32.5 24.7 81 2.5 SW 11 15 6 8 1013.3 - 0.0
30/08:30am 27.6 31.7 24.6 84 2.1 SSW 11 13 6 7 1013.1 - 0.0
30/08:00am 26.6 30.7 24.6 89 1.4 SSW 11 15 6 8 1012.7 - 0.0
30/07:30am 25.9 30.3 24.5 92 1.0 S 9 11 5 6 1012.4 1011.8 0.0
30/07:00am 25.9 31.0 24.9 94 0.7 SSW 7 11 4 6 1012.2 - 0.0
30/06:30am 26.0 30.4 25.0 94 0.7 S 11 13 6 7 1011.9 - 0.0
30/06:00am 25.8 30.6 25.1 96 0.5 S 9 11 5 6 1011.6 - 0.0
30/05:30am 25.6 30.7 25.6 100 0.0 S 9 11 5 6 1011.3 - 0.0
30/05:00am 25.2 30.5 25.2 100 0.0 S 7 9 4 5 1011.1 - 0.0
30/04:30am 25.0 31.5 25.0 100 0.0 CALM 0 0 0 0 1010.8 1010.2 0.0
30/04:00am 25.3 31.9 25.3 100 0.0 CALM 0 0 0 0 1010.6 - 0.0
30/03:30am 25.2 31.8 25.2 100 0.0 CALM 0 0 0 0 1010.6 - 0.0
30/03:00am 25.3 31.9 25.3 100 0.0 CALM 0 0 0 0 1010.4 - 0.0
30/02:30am 25.2 31.7 25.0 99 0.1 CALM 0 0 0 0 1010.6 - 0.0
30/02:00am 25.6 32.4 25.6 100 0.0 CALM 0 0 0 0 1010.9 - 0.0
30/01:30am 25.6 32.3 25.4 99 0.1 CALM 0 0 0 0 1011.3 1010.7 0.0
30/01:00am 25.7 32.4 25.4 98 0.2 CALM 0 0 0 0 1011.7 - 0.0
30/12:30am 26.0 32.5 25.7 98 0.2 S 2 7 1 4 1012.2 - 0.0
30/12:00am 26.1 33.1 25.8 98 0.2 CALM 0 0 0 0 1012.6 - 0.0
 
Date/Time
CST
Temp
°C
App
Temp
°C
Dew
Point
Rel
Hum
%
Delta-T
°C
Wind Press
QNH
hPa
Press
MSL
hPa
Rain
since 9 am
mm
Dir
 
Spd
km/h
Gust
km/h
Spd
kts
Gust
kts
29/11:30pm 26.1 33.1 25.8 98 0.2 CALM 0 0 0 0 1012.7 - 0.0
29/11:00pm 26.4 33.3 25.7 96 0.5 CALM 0 0 0 0 1012.8 - 0.0
29/10:30pm 26.6 33.6 25.9 96 0.5 CALM 0 0 0 0 1013.0 1012.4 0.0
29/10:00pm 26.7 33.7 25.8 95 0.6 CALM 0 0 0 0 1013.0 - 0.0
29/09:30pm 27.0 34.0 25.9 94 0.8 CALM 0 0 0 0 1013.0 - 0.0
29/09:00pm 27.4 34.5 26.0 92 1.0 CALM 0 0 0 0 1012.9 - 0.0
29/08:56pm 27.6 34.7 26.0 91 1.1 CALM 0 0 0 0 1012.8 - 0.0
29/08:30pm 27.6 34.3 25.4 88 1.5 CALM 0 0 0 0 1012.7 - 0.0
29/08:29pm 27.6 34.3 25.4 88 1.5 CALM 0 0 0 0 1012.7 - 0.0
29/08:11pm 27.7 34.0 25.3 87 1.7 N 2 6 1 3 1012.4 - 0.0
29/08:00pm 27.7 33.2 25.3 87 1.7 N 6 7 3 4 1012.4 - 0.0
29/07:42pm 27.9 33.2 24.9 84 2.1 NNW 6 7 3 4 1012.3 - 0.0
29/07:30pm 28.0 33.0 24.8 83 2.2 N 7 9 4 5 1012.0 1011.4 0.0
29/07:00pm 28.6 33.5 24.6 79 2.8 N 7 11 4 6 1011.6 - 0.0
29/06:30pm 29.3 33.3 23.7 72 3.9 N 9 17 5 9 1011.4 - 0.0
29/06:00pm 29.7 33.2 23.6 69 4.2 N 11 17 6 9 1011.3 - 0.0
29/05:30pm 30.1 33.2 22.8 65 5.0 NNW 11 17 6 9 1011.1 - 0.0
29/05:00pm 30.8 33.1 22.1 59 5.9 NNW 13 17 7 9 1011.0 - 0.0
29/04:30pm 30.8 33.3 22.4 61 5.7 N 13 17 7 9 1011.0 1010.4 0.0
29/04:00pm 30.8 33.4 22.7 62 5.5 NNW 13 20 7 11 1011.0 - 0.0
29/03:30pm 31.4 33.7 22.7 60 6.0 N 15 19 8 10 1011.0 - 0.0
29/03:00pm 31.2 33.0 21.9 57 6.3 N 15 20 8 11 1011.1 - 0.0
29/02:30pm 31.1 32.6 21.3 56 6.6 N 15 22 8 12 1011.4 - 0.0
29/02:00pm 31.4 33.9 21.8 56 6.5 N 11 19 6 10 1011.7 - 0.0
29/01:30pm 31.5 33.9 22.2 57 6.3 NNE 13 19 7 10 1012.1 1011.5 0.0
29/01:00pm 31.4 33.7 21.3 55 6.8 N 11 20 6 11 1012.4 - 0.0
29/12:30pm 31.4 33.7 21.3 55 6.8 N 11 20 6 11 1012.7 - 0.0
29/12:00pm 32.1 36.0 22.5 57 6.6 ENE 6 13 3 7 1013.1 - 0.0
29/11:30am 31.1 34.5 21.6 57 6.4 ENE 6 11 3 6 1013.5 - 0.0
29/11:00am 30.7 34.0 21.8 59 6.0 ENE 7 11 4 6 1013.8 - 0.0
29/10:30am 30.2 33.8 22.4 63 5.3 ENE 7 13 4 7 1013.7 1013.1 7.8
29/10:00am 29.7 33.5 22.7 66 4.8 E 7 11 4 6 1013.5 - 7.8
29/09:30am 29.0 33.2 23.4 72 3.9 E 7 11 4 6 1013.5 - 7.6
29/09:00am 28.1 31.9 22.8 73 3.6 ESE 7 11 4 6 1013.3 - 7.6
29/08:30am 27.2 31.1 22.6 76 3.1 ESE 6 9 3 5 1012.8 - 7.6
29/08:00am 25.5 29.6 23.0 86 1.7 SE 6 9 3 5 1012.5 - 7.6
29/07:30am 23.9 27.7 22.7 93 0.8 SE 7 9 4 5 1011.9 1011.3 7.6
29/07:00am 23.8 27.6 22.8 94 0.7 SSE 7 9 4 5 1011.7 - 7.6
29/06:30am 23.6 27.5 22.6 94 0.7 SE 6 7 3 4 1011.5 - 7.6
29/06:00am 23.3 27.0 22.3 94 0.7 S 6 7 3 4 1011.2 - 7.6
29/05:30am 23.7 27.4 22.3 92 0.9 SSE 6 7 3 4 1011.0 - 7.6
29/05:00am 23.8 27.4 22.4 92 0.9 SE 7 9 4 5 1010.6 - 7.6
29/04:30am 23.2 27.4 22.4 95 0.5 SSE 4 7 2 4 1010.8 1010.2 7.6
29/04:00am 23.4 27.3 22.6 95 0.5 SSE 6 7 3 4 1010.9 - 7.6
29/03:30am 23.9 27.6 22.2 90 1.1 SSE 6 7 3 4 1011.1 - 7.6
29/03:00am 24.0 27.6 22.1 89 1.3 SE 6 9 3 5 1011.2 - 7.6
29/02:30am 24.0 27.3 21.9 88 1.4 SE 7 9 4 5 1011.5 - 7.6
29/02:00am 24.1 28.1 22.0 88 1.4 ESE 4 6 2 3 1011.8 - 7.6
29/01:30am 24.2 27.5 21.9 87 1.5 ESE 7 13 4 7 1012.1 1011.5 7.6
29/01:00am 24.0 27.2 21.7 87 1.5 ESE 7 9 4 5 1012.3 - 7.6
29/12:30am 23.9 26.7 21.6 87 1.5 ESE 9 13 5 7 1012.4 - 7.6
29/12:00am 24.0 27.2 21.7 87 1.5 ESE 7 11 4 6 1012.6 - 7.6
 
Date/Time
CST
Temp
°C
App
Temp
°C
Dew
Point
Rel
Hum
%
Delta-T
°C
Wind Press
QNH
hPa
Press
MSL
hPa
Rain
since 9 am
mm
Dir
 
Spd
km/h
Gust
km/h
Spd
kts
Gust
kts
28/11:30pm 24.0 26.9 21.7 87 1.5 ESE 9 13 5 7 1012.8 - 7.6
28/11:00pm 24.1 27.0 21.8 87 1.5 ESE 9 13 5 7 1013.0 - 7.6
28/10:30pm 24.2 27.2 21.9 87 1.5 ESE 9 13 5 7 1012.9 1012.3 7.6
28/10:00pm 24.1 27.3 22.4 90 1.1 ESE 9 13 5 7 1012.8 - 7.6
28/09:30pm 24.1 27.2 22.2 89 1.3 ESE 9 13 5 7 1012.6 - 7.6
28/09:00pm 24.2 28.1 22.5 90 1.1 E 6 9 3 5 1012.3 - 7.6
28/08:30pm 24.4 27.6 22.3 88 1.4 ESE 9 13 5 7 1012.0 - 7.6
28/08:00pm 23.9 27.1 22.3 91 1.1 ESE 9 11 5 6 1011.8 - 7.6
28/07:30pm 23.8 27.0 22.4 92 0.9 ESE 9 15 5 8 1011.7 1011.1 7.6
28/07:00pm 24.0 26.9 22.4 91 1.1 ESE 11 19 6 10 1011.6 - 7.6
28/06:30pm 24.5 27.9 23.3 93 0.8 ESE 11 20 6 11 1011.6 - 7.6
28/06:27pm 24.5 27.9 23.3 93 0.8 ESE 11 20 6 11 1011.6 - 7.6
28/06:00pm 25.0 27.7 23.4 91 1.1 E 15 26 8 14 1011.7 - 7.6
28/05:55pm 25.6 28.6 24.0 91 1.1 E 15 20 8 11 1011.7 - 7.6
28/05:30pm 26.2 29.9 23.9 87 1.6 ENE 11 17 6 9 1011.7 - 7.6
28/05:00pm 26.0 30.2 24.8 93 0.8 E 11 15 6 8 1011.6 - 7.6
28/04:30pm 26.1 31.0 24.7 92 1.0 ENE 7 9 4 5 1011.5 1010.9 7.6

Other Formats:

Comma delimited format used in spreadsheet applications
http://www.bom.gov.au/fwo/IDD60801/IDD60801.95101.axf

JavaScript Object Notation format (JSON) in row-major order
http://www.bom.gov.au/fwo/IDD60801/IDD60801.95101.json